Terminal Aerodrome Forecast
Issued by NWS Duluth, MN

Home | Current Version | Previous Version | Text Only | Print | Product List | Glossary On
Versions: 1 2 3 4 5 6 7 8 9 10 11 12 13 14 15 16
000
FTUS43 KDLH 230500
TAFDLH
TAF
KDLH 230520Z 2306/2406 09004KT P6SM FEW250
     FM231300 10007KT P6SM BKN250
     FM231600 10013KT P6SM BKN200
     FM232200 10015KT P6SM BKN100
     FM240300 10012KT P6SM SCT015 BKN040 PROB30 2404/2406 6SM -RA
      BKN015 OVC040=

USA.gov is the U.S. government's official web portal to all federal, state and local government web resources and services.